createdAt,value
2023-02-06T00:02:02.903Z,23.38
2023-02-06T00:04:30.039Z,21.15
2023-02-06T00:06:57.241Z,21.80
2023-02-06T00:09:24.384Z,22.67
2023-02-06T00:11:51.509Z,20.27
2023-02-06T00:14:19.762Z,23.48
2023-02-06T00:16:46.955Z,21.13
2023-02-06T00:19:14.119Z,21.30
2023-02-06T00:21:41.257Z,26.23
2023-02-06T00:24:08.502Z,23.67
2023-02-06T00:26:35.851Z,22.75
2023-02-06T00:29:02.976Z,24.83
2023-02-06T00:31:30.237Z,24.80
2023-02-06T00:33:57.426Z,23.58
2023-02-06T00:36:24.790Z,24.40
2023-02-06T00:38:51.993Z,23.27
2023-02-06T00:41:19.303Z,23.52
2023-02-06T00:43:46.463Z,24.42
2023-02-06T00:46:13.619Z,23.35
2023-02-06T00:48:42.081Z,25.08
2023-02-06T00:51:09.182Z,23.92
2023-02-06T00:53:36.306Z,24.48
2023-02-06T00:56:03.506Z,25.42
2023-02-06T00:58:30.749Z,24.38
2023-02-06T01:00:57.970Z,26.30
2023-02-06T01:03:25.161Z,24.80
2023-02-06T01:05:52.524Z,23.25
2023-02-06T01:08:19.652Z,25.13
2023-02-06T01:10:46.885Z,26.70
2023-02-06T01:13:14.456Z,25.77
2023-02-06T01:15:41.624Z,25.63
2023-02-06T01:18:08.822Z,24.65
2023-02-06T01:20:36.290Z,26.95
2023-02-06T01:23:03.462Z,25.58
2023-02-06T01:25:30.647Z,26.73
2023-02-06T01:27:57.815Z,26.65
2023-02-06T01:30:25.048Z,25.85
2023-02-06T01:32:52.242Z,27.30
2023-02-06T01:35:19.505Z,25.40
2023-02-06T01:37:46.610Z,26.00
2023-02-06T01:40:15.119Z,25.80
2023-02-06T01:42:42.473Z,26.38
2023-02-06T01:45:24.891Z,25.13
2023-02-06T01:47:53.261Z,25.10
2023-02-06T01:50:20.638Z,24.48
2023-02-06T01:52:48.009Z,23.08
2023-02-06T01:55:15.478Z,25.02
2023-02-06T01:57:43.094Z,24.33
2023-02-06T02:00:11.593Z,25.00
2023-02-06T02:02:40.432Z,24.95
2023-02-06T02:05:08.769Z,24.65
2023-02-06T02:07:42.821Z,25.55
2023-02-06T02:10:10.109Z,24.45
2023-02-06T02:12:37.270Z,25.23
2023-02-06T02:15:04.639Z,25.15
2023-02-06T02:17:37.714Z,25.83
2023-02-06T02:20:23.589Z,26.05
2023-02-06T02:22:58.500Z,26.13
2023-02-06T02:25:47.335Z,26.20
2023-02-06T02:28:33.290Z,27.13
2023-02-06T02:31:00.442Z,25.80
2023-02-06T02:33:30.627Z,26.67
2023-02-06T02:35:57.760Z,24.90
2023-02-06T02:38:32.745Z,25.98
2023-02-06T02:41:09.050Z,25.73
2023-02-06T02:43:41.067Z,25.80
2023-02-06T02:46:15.360Z,24.70
2023-02-06T02:48:44.892Z,23.55
2023-02-06T02:51:12.232Z,25.55
2023-02-06T02:53:39.393Z,24.35
2023-02-06T02:56:20.635Z,23.20
2023-02-06T02:58:49.673Z,27.20
2023-02-06T03:01:20.206Z,25.63
2023-02-06T03:03:49.190Z,24.92
2023-02-06T03:06:28.727Z,25.48
2023-02-06T03:09:01.790Z,25.00
2023-02-06T03:11:29.279Z,27.17
2023-02-06T03:13:58.676Z,23.75
2023-02-06T03:16:29.831Z,24.77
2023-02-06T03:19:03.559Z,24.60
2023-02-06T03:21:32.174Z,24.80
2023-02-06T03:24:01.974Z,24.90
2023-02-06T03:26:30.602Z,25.45
2023-02-06T03:29:00.982Z,24.95
2023-02-06T03:31:31.236Z,24.60
2023-02-06T03:34:06.374Z,26.20
2023-02-06T03:36:33.649Z,26.38
2023-02-06T03:39:00.903Z,27.30
2023-02-06T03:41:30.341Z,29.05
2023-02-06T03:43:57.845Z,28.98
2023-02-06T03:46:26.475Z,28.25
2023-02-06T03:48:55.279Z,27.85
2023-02-06T03:51:26.218Z,26.85
2023-02-06T03:53:54.771Z,25.63
2023-02-06T03:56:45.139Z,26.52
2023-02-06T03:59:12.355Z,25.83
2023-02-06T04:01:48.291Z,26.63
2023-02-06T04:04:19.855Z,37.33
2023-02-06T04:06:47.096Z,30.52
2023-02-06T04:09:14.310Z,29.67
2023-02-06T04:11:41.476Z,28.75
2023-02-06T04:14:08.598Z,28.85
2023-02-06T04:16:35.858Z,29.88
2023-02-06T04:19:03.101Z,27.05
2023-02-06T04:21:30.252Z,30.15
2023-02-06T04:23:57.355Z,29.92
2023-02-06T04:26:24.495Z,29.70
2023-02-06T04:28:51.844Z,29.38
2023-02-06T04:31:19.024Z,29.17
2023-02-06T04:33:46.244Z,30.58
2023-02-06T04:36:13.472Z,30.90
2023-02-06T04:38:40.618Z,31.58
2023-02-06T04:41:08.310Z,33.30
2023-02-06T04:43:35.545Z,32.65
2023-02-06T04:46:02.766Z,34.35
2023-02-06T04:48:29.977Z,33.80
2023-02-06T04:50:57.184Z,33.92
2023-02-06T04:53:24.512Z,30.05
2023-02-06T04:55:51.680Z,35.00
2023-02-06T04:58:18.858Z,33.72
2023-02-06T05:00:46.053Z,35.47
2023-02-06T05:03:13.223Z,37.90
2023-02-06T05:05:40.398Z,36.08
2023-02-06T05:08:07.583Z,35.65
2023-02-06T05:10:34.837Z,32.85
2023-02-06T05:13:01.983Z,32.47
2023-02-06T05:15:29.138Z,33.63
2023-02-06T05:17:56.236Z,31.25
2023-02-06T05:20:23.386Z,31.25
2023-02-06T05:22:50.528Z,32.40
2023-02-06T05:25:17.727Z,32.78
2023-02-06T05:27:44.873Z,29.10
2023-02-06T05:30:12.419Z,28.70
2023-02-06T05:32:39.605Z,28.75
2023-02-06T05:35:06.978Z,29.75
2023-02-06T05:37:34.485Z,29.45
2023-02-06T05:40:01.618Z,29.13
2023-02-06T05:42:28.755Z,27.60
2023-02-06T05:44:55.932Z,29.38
2023-02-06T05:47:23.125Z,27.27
2023-02-06T05:49:50.267Z,26.35
2023-02-06T05:52:17.476Z,21.27
2023-02-06T05:54:45.546Z,21.23
2023-02-06T05:57:12.699Z,22.00
2023-02-06T05:59:39.817Z,16.05
2023-02-06T06:02:07.346Z,15.57
2023-02-06T06:04:34.564Z,14.18
2023-02-06T06:07:01.830Z,16.13
2023-02-06T06:09:29.014Z,18.20
2023-02-06T06:11:56.193Z,38.92
2023-02-06T06:14:23.434Z,27.25
2023-02-06T06:16:50.590Z,16.73
2023-02-06T06:19:17.769Z,18.67
2023-02-06T06:21:44.913Z,17.83
2023-02-06T06:24:12.040Z,14.75
2023-02-06T06:26:39.469Z,14.52
2023-02-06T06:29:06.674Z,13.38
2023-02-06T06:31:33.904Z,12.02
2023-02-06T06:34:01.347Z,12.68
2023-02-06T06:36:28.493Z,13.68
2023-02-06T06:38:55.731Z,14.48
2023-02-06T06:41:22.930Z,15.23
2023-02-06T06:43:51.538Z,14.40
2023-02-06T06:46:19.286Z,15.68
2023-02-06T06:48:46.429Z,15.10
2023-02-06T06:51:13.542Z,14.75
2023-02-06T06:53:40.709Z,13.90
2023-02-06T06:56:08.702Z,16.10
2023-02-06T06:58:35.929Z,17.23
2023-02-06T07:01:03.169Z,17.05
2023-02-06T07:03:30.371Z,17.88
2023-02-06T07:05:57.529Z,18.02
2023-02-06T07:08:24.912Z,17.65
2023-02-06T07:10:52.107Z,17.35
2023-02-06T07:13:19.291Z,14.75
2023-02-06T07:15:46.425Z,16.58
2023-02-06T07:18:13.750Z,12.18
2023-02-06T07:20:40.920Z,13.35
2023-02-06T07:23:08.052Z,12.32
2023-02-06T07:25:35.641Z,14.77
2023-02-06T07:28:03.029Z,13.05
2023-02-06T07:30:30.301Z,11.98
2023-02-06T07:32:57.555Z,12.98
2023-02-06T07:35:24.769Z,13.55
2023-02-06T07:37:55.027Z,13.70
2023-02-06T07:40:22.381Z,14.02
2023-02-06T07:42:49.633Z,14.50
2023-02-06T07:45:16.838Z,12.35
2023-02-06T07:47:44.224Z,13.90
2023-02-06T07:50:11.640Z,15.05
2023-02-06T07:52:38.954Z,13.18
2023-02-06T07:55:06.471Z,13.50
2023-02-06T07:57:33.649Z,14.30
2023-02-06T08:00:00.772Z,14.65
2023-02-06T08:02:27.922Z,17.48
2023-02-06T08:04:55.238Z,17.60
2023-02-06T08:07:22.446Z,16.30
2023-02-06T08:09:50.450Z,13.63
2023-02-06T08:12:17.754Z,14.27
2023-02-06T08:14:45.875Z,14.35
2023-02-06T08:17:13.682Z,14.02
2023-02-06T08:19:40.847Z,14.05
2023-02-06T08:22:08.141Z,13.60
2023-02-06T08:24:35.321Z,12.35
2023-02-06T08:27:02.646Z,12.05
2023-02-06T08:29:29.954Z,10.88
2023-02-06T08:31:57.224Z,12.63
2023-02-06T08:34:24.427Z,12.65
2023-02-06T08:36:51.613Z,13.93
2023-02-06T08:39:19.247Z,12.25
2023-02-06T08:41:46.380Z,12.75
2023-02-06T08:44:15.989Z,13.38
2023-02-06T08:46:43.697Z,13.18
2023-02-06T08:49:21.263Z,13.65
2023-02-06T08:51:51.922Z,13.05
2023-02-06T08:54:20.118Z,14.52
2023-02-06T08:56:47.785Z,14.13
2023-02-06T08:59:16.160Z,16.77
2023-02-06T09:01:45.455Z,15.07
2023-02-06T09:04:13.822Z,15.25
2023-02-06T09:06:42.711Z,12.85
2023-02-06T09:09:10.485Z,14.68
2023-02-06T09:11:38.093Z,15.77
2023-02-06T09:14:06.110Z,14.85
2023-02-06T09:16:33.604Z,14.30
2023-02-06T09:19:01.594Z,14.35
2023-02-06T09:21:32.730Z,13.20
2023-02-06T09:24:01.394Z,13.35
2023-02-06T09:26:33.319Z,17.20
2023-02-06T09:29:03.283Z,12.45
2023-02-06T09:31:31.321Z,12.18
2023-02-06T09:34:00.394Z,13.68
2023-02-06T09:36:28.815Z,11.95
2023-02-06T09:38:57.343Z,12.10
2023-02-06T09:41:27.563Z,11.50
2023-02-06T09:44:00.950Z,11.93
2023-02-06T09:46:31.478Z,11.40
2023-02-06T09:49:01.187Z,9.05
2023-02-06T09:51:31.554Z,8.35
2023-02-06T09:54:07.642Z,9.55
2023-02-06T09:56:37.805Z,9.02
2023-02-06T09:59:14.081Z,9.35
2023-02-06T10:01:44.361Z,8.48
2023-02-06T10:04:20.717Z,9.38
2023-02-06T10:07:03.546Z,8.50
2023-02-06T10:12:01.579Z,9.73
2023-02-06T10:14:32.997Z,8.50
2023-02-06T10:17:01.730Z,9.18
2023-02-06T10:19:39.513Z,9.88
2023-02-06T10:22:10.077Z,10.60
2023-02-06T10:24:52.511Z,9.43
2023-02-06T10:27:20.376Z,9.60
2023-02-06T10:29:48.477Z,10.18
2023-02-06T10:32:33.912Z,8.32
2023-02-06T10:35:09.942Z,9.30
2023-02-06T10:37:55.948Z,9.88
2023-02-06T10:40:47.743Z,10.05
2023-02-06T10:43:33.684Z,9.20
2023-02-06T10:46:00.795Z,7.10
2023-02-06T10:48:29.429Z,8.55
2023-02-06T10:50:56.540Z,8.77
2023-02-06T10:53:27.227Z,8.60
2023-02-06T10:55:57.499Z,7.43
2023-02-06T10:58:38.370Z,7.95
2023-02-06T11:01:16.825Z,7.53
2023-02-06T11:04:00.935Z,7.90
2023-02-06T11:06:29.897Z,7.38
2023-02-06T11:08:57.214Z,7.88
2023-02-06T11:11:25.705Z,8.15
2023-02-06T11:13:57.988Z,12.40
2023-02-06T11:16:26.950Z,7.85
2023-02-06T11:18:55.682Z,6.80
2023-02-06T11:21:41.498Z,8.70
2023-02-06T11:24:13.293Z,6.85
2023-02-06T11:26:46.906Z,8.20
2023-02-06T11:29:37.114Z,11.23
2023-02-06T11:32:06.000Z,7.90
2023-02-06T11:34:39.805Z,7.53
2023-02-06T11:37:07.905Z,9.70
2023-02-06T11:39:39.515Z,8.93
2023-02-06T11:42:08.080Z,8.27
2023-02-06T11:44:39.900Z,9.75
2023-02-06T11:47:30.266Z,9.48
2023-02-06T11:49:58.987Z,8.57
2023-02-06T11:52:31.066Z,6.97
2023-02-06T11:55:02.257Z,8.43
2023-02-06T11:57:36.092Z,6.43
2023-02-06T12:00:19.119Z,6.32
2023-02-06T12:02:51.391Z,6.35
2023-02-06T12:05:19.765Z,6.60
2023-02-06T12:07:55.779Z,6.38
2023-02-06T12:10:24.095Z,6.10
2023-02-06T12:12:55.097Z,6.03
2023-02-06T12:15:44.878Z,6.90
2023-02-06T12:18:16.438Z,4.90
2023-02-06T12:20:51.657Z,5.60
2023-02-06T12:23:37.269Z,7.05
2023-02-06T12:26:10.816Z,6.30
2023-02-06T12:28:42.880Z,6.57
2023-02-06T12:31:36.974Z,5.90
2023-02-06T12:34:11.734Z,5.90
2023-02-06T12:36:51.040Z,6.15
2023-02-06T12:39:22.870Z,5.80
2023-02-06T12:42:03.156Z,5.38
2023-02-06T12:44:39.587Z,6.25
2023-02-06T12:47:06.801Z,6.72
2023-02-06T12:49:38.453Z,5.68
2023-02-06T12:52:10.413Z,6.27
2023-02-06T12:54:46.282Z,6.97
2023-02-06T12:57:19.655Z,6.47
2023-02-06T12:59:57.497Z,7.18
2023-02-06T13:02:26.085Z,6.20
2023-02-06T13:04:54.023Z,6.30
2023-02-06T13:07:22.938Z,5.68
2023-02-06T13:09:55.880Z,5.75
2023-02-06T13:12:25.109Z,5.85
2023-02-06T13:14:54.991Z,6.00
2023-02-06T13:17:25.138Z,6.53
2023-02-06T13:19:57.540Z,6.57
2023-02-06T13:22:36.129Z,6.45
2023-02-06T13:25:23.561Z,5.82
2023-02-06T13:27:51.178Z,6.43
2023-02-06T13:30:24.562Z,6.35
2023-02-06T13:32:53.360Z,6.18
2023-02-06T13:35:22.293Z,6.40
2023-02-06T13:37:50.316Z,6.65
2023-02-06T13:40:26.745Z,4.82
2023-02-06T13:43:10.149Z,6.00
2023-02-06T13:45:49.642Z,5.10
2023-02-06T13:48:35.765Z,5.50
2023-02-06T13:51:06.246Z,6.00
2023-02-06T13:53:36.500Z,5.32
2023-02-06T13:56:09.999Z,4.72
2023-02-06T13:58:39.314Z,5.20
2023-02-06T14:01:12.533Z,6.25
2023-02-06T14:03:43.520Z,9.68
2023-02-06T14:06:10.870Z,5.57
2023-02-06T14:08:38.165Z,5.38
2023-02-06T14:11:29.944Z,5.72
2023-02-06T14:14:00.215Z,4.97
2023-02-06T14:16:32.584Z,4.97
2023-02-06T14:19:00.017Z,5.10
2023-02-06T14:21:35.497Z,5.07
2023-02-06T14:24:07.670Z,5.57
2023-02-06T14:26:34.865Z,5.13
2023-02-06T14:29:09.954Z,5.00
2023-02-06T14:31:54.506Z,5.55
2023-02-06T14:34:24.971Z,5.30
2023-02-06T14:37:06.058Z,5.20
2023-02-06T14:39:45.259Z,4.93
2023-02-06T14:42:15.403Z,4.75
2023-02-06T14:44:43.526Z,11.57
2023-02-06T14:47:19.489Z,5.72
2023-02-06T14:49:47.470Z,5.72
2023-02-06T14:52:20.177Z,5.07
2023-02-06T14:57:16.961Z,5.43
2023-02-06T14:59:51.147Z,6.45
2023-02-06T15:02:23.680Z,5.28
2023-02-06T15:07:22.664Z,5.40
2023-02-06T15:09:56.547Z,4.95
2023-02-06T15:12:26.730Z,5.32
2023-02-06T15:14:55.569Z,5.47
2023-02-06T15:17:24.041Z,4.75
2023-02-06T15:19:51.347Z,5.47
2023-02-06T15:22:22.893Z,5.55
2023-02-06T15:24:52.917Z,5.28
2023-02-06T15:27:30.652Z,7.47
2023-02-06T15:29:58.117Z,5.72
2023-02-06T15:32:30.203Z,9.93
2023-02-06T15:34:57.469Z,5.82
2023-02-06T15:37:30.465Z,7.03
2023-02-06T15:40:02.493Z,5.53
2023-02-06T15:42:29.801Z,5.00
2023-02-06T15:44:57.537Z,5.85
2023-02-06T15:47:25.240Z,3.92
2023-02-06T15:49:54.324Z,3.65
2023-02-06T15:52:42.791Z,3.22
2023-02-06T15:55:29.040Z,4.20
2023-02-06T15:58:02.113Z,4.65
2023-02-06T16:00:31.075Z,5.50
2023-02-06T16:03:02.832Z,6.07
2023-02-06T16:05:40.791Z,5.13
2023-02-06T16:08:17.814Z,6.38
2023-02-06T16:10:49.033Z,6.30
2023-02-06T16:13:18.381Z,5.28
2023-02-06T16:16:06.849Z,4.60
2023-02-06T16:18:35.299Z,4.53
2023-02-06T16:21:12.092Z,3.83
2023-02-06T16:23:48.575Z,4.22
2023-02-06T16:26:18.792Z,4.07
2023-02-06T16:28:51.845Z,4.75
2023-02-06T16:31:19.363Z,4.88
2023-02-06T16:33:49.002Z,4.80
2023-02-06T16:36:17.260Z,5.53
2023-02-06T16:38:54.063Z,5.00
2023-02-06T16:41:26.387Z,4.53
2023-02-06T16:43:54.420Z,4.15
2023-02-06T16:46:21.971Z,4.25
2023-02-06T16:48:49.153Z,4.18
2023-02-06T16:51:17.168Z,4.40
2023-02-06T16:53:44.842Z,4.38
2023-02-06T16:56:13.367Z,4.82
2023-02-06T16:58:40.623Z,4.68
2023-02-06T17:01:11.911Z,6.95
2023-02-06T17:03:39.367Z,6.88
2023-02-06T17:06:07.266Z,12.02
2023-02-06T17:08:37.846Z,8.00
2023-02-06T17:11:05.040Z,5.03
2023-02-06T17:13:32.276Z,5.28
2023-02-06T17:15:59.811Z,5.57
2023-02-06T17:18:27.061Z,7.47
2023-02-06T17:20:56.287Z,8.60
2023-02-06T17:23:23.902Z,7.60
2023-02-06T17:25:52.224Z,6.95
2023-02-06T17:28:20.961Z,9.43
2023-02-06T17:30:50.863Z,12.82
2023-02-06T17:33:18.556Z,12.10
2023-02-06T17:35:46.870Z,7.43
2023-02-06T17:38:14.233Z,9.75
2023-02-06T17:40:41.841Z,9.82
2023-02-06T17:43:09.395Z,8.20
2023-02-06T17:45:38.758Z,8.23
2023-02-06T17:48:06.668Z,31.75
2023-02-06T17:50:35.960Z,12.43
2023-02-06T17:53:05.936Z,11.15
2023-02-06T17:55:35.418Z,9.48
2023-02-06T17:58:02.900Z,9.25
2023-02-06T18:00:30.231Z,9.18
2023-02-06T18:02:59.520Z,7.10
2023-02-06T18:05:26.780Z,7.18
2023-02-06T18:07:54.220Z,6.65
2023-02-06T18:10:22.583Z,6.75
2023-02-06T18:12:49.789Z,6.30
2023-02-06T18:15:17.206Z,6.88
2023-02-06T18:17:44.625Z,7.32
2023-02-06T18:20:12.590Z,7.15
2023-02-06T18:22:42.536Z,7.38
2023-02-06T18:25:10.801Z,8.70
2023-02-06T18:27:38.106Z,8.90
2023-02-06T18:30:05.753Z,7.18
2023-02-06T18:32:33.356Z,7.20
2023-02-06T18:35:01.013Z,6.63
2023-02-06T18:37:28.203Z,7.15
2023-02-06T18:39:55.768Z,7.03
2023-02-06T18:42:42.168Z,7.57
2023-02-06T18:45:09.578Z,9.38
2023-02-06T18:47:38.921Z,7.50
2023-02-06T18:50:06.344Z,8.48
2023-02-06T18:52:33.730Z,7.53
2023-02-06T18:55:00.917Z,7.63
2023-02-06T18:57:28.332Z,8.10
2023-02-06T18:59:55.687Z,8.00
2023-02-06T19:02:22.969Z,8.45
2023-02-06T19:04:50.240Z,8.63
2023-02-06T19:07:18.498Z,9.05
2023-02-06T19:09:46.396Z,8.18
2023-02-06T19:12:14.107Z,7.55
2023-02-06T19:14:41.852Z,9.10
2023-02-06T19:17:09.272Z,8.05
2023-02-06T19:19:36.736Z,7.95
2023-02-06T19:22:04.109Z,8.20
2023-02-06T19:24:31.655Z,20.48
2023-02-06T19:26:59.031Z,9.90
2023-02-06T19:29:35.225Z,8.90
2023-02-06T19:32:04.233Z,8.43
2023-02-06T19:34:33.469Z,8.55
2023-02-06T19:37:01.840Z,8.07
2023-02-06T19:39:33.920Z,9.48
2023-02-06T19:42:02.124Z,11.23
2023-02-06T19:44:29.343Z,10.88
2023-02-06T19:46:57.108Z,11.23
2023-02-06T19:49:24.912Z,12.57
2023-02-06T19:51:52.164Z,10.10
2023-02-06T19:54:19.660Z,9.73
2023-02-06T19:56:47.867Z,9.88
2023-02-06T19:59:20.110Z,9.38
2023-02-06T20:01:51.210Z,6.72
2023-02-06T20:04:19.025Z,8.88
2023-02-06T20:06:46.320Z,8.93
2023-02-06T20:09:14.578Z,9.68
2023-02-06T20:11:42.415Z,9.68
2023-02-06T20:14:10.284Z,9.05
2023-02-06T20:16:38.631Z,6.97
2023-02-06T20:19:06.733Z,7.03
2023-02-06T20:21:37.397Z,8.93
2023-02-06T20:24:07.091Z,8.45
2023-02-06T20:26:37.377Z,10.80
2023-02-06T20:29:05.117Z,8.43
2023-02-06T20:31:32.447Z,9.05
2023-02-06T20:33:59.802Z,9.30
2023-02-06T20:36:27.669Z,9.00
2023-02-06T20:38:56.251Z,9.82
2023-02-06T20:41:26.117Z,7.63
2023-02-06T20:43:53.504Z,8.85
2023-02-06T20:46:21.729Z,8.32
2023-02-06T20:48:53.700Z,6.78
2023-02-06T20:51:20.842Z,6.90
2023-02-06T20:53:48.168Z,65.78
2023-02-06T20:56:15.670Z,7.50
2023-02-06T20:58:43.467Z,8.15
2023-02-06T21:01:13.907Z,8.35
2023-02-06T21:03:41.159Z,8.80
2023-02-06T21:06:08.451Z,7.63
2023-02-06T21:08:35.952Z,9.93
2023-02-06T21:11:03.330Z,8.60
2023-02-06T21:13:30.770Z,8.13
2023-02-06T21:15:58.883Z,8.90
2023-02-06T21:18:27.494Z,9.35
2023-02-06T21:20:55.898Z,8.60
2023-02-06T21:23:23.574Z,7.97
2023-02-06T21:25:52.288Z,8.63
2023-02-06T21:28:19.876Z,8.55
2023-02-06T21:30:47.455Z,9.10
2023-02-06T21:33:14.705Z,8.48
2023-02-06T21:35:49.070Z,6.80
2023-02-06T21:38:16.442Z,8.50
2023-02-06T21:40:44.290Z,7.05
2023-02-06T21:43:11.734Z,8.27
2023-02-06T21:45:39.810Z,8.80
2023-02-06T21:48:07.459Z,6.40
2023-02-06T21:50:34.948Z,10.38
2023-02-06T21:53:02.294Z,9.75
2023-02-06T21:55:32.353Z,9.25
2023-02-06T21:58:01.022Z,10.13
2023-02-06T22:00:28.797Z,8.23
2023-02-06T22:02:56.081Z,10.85
2023-02-06T22:05:23.340Z,10.48
2023-02-06T22:07:50.557Z,8.02
2023-02-06T22:10:17.753Z,9.95
2023-02-06T22:12:48.982Z,9.20
2023-02-06T22:15:16.269Z,10.57
2023-02-06T22:17:43.500Z,11.88
2023-02-06T22:20:10.784Z,11.45
2023-02-06T22:22:38.806Z,10.55
2023-02-06T22:25:07.963Z,11.88
2023-02-06T22:27:35.754Z,9.48
2023-02-06T22:30:03.105Z,6.72
2023-02-06T22:32:30.373Z,5.05
2023-02-06T22:35:00.758Z,5.45
2023-02-06T22:37:27.858Z,3.85
2023-02-06T22:39:55.961Z,5.20
2023-02-06T22:42:23.330Z,5.28
2023-02-06T22:44:50.598Z,5.63
2023-02-06T22:47:17.890Z,6.30
2023-02-06T22:49:45.078Z,6.35
2023-02-06T22:52:30.900Z,6.28
2023-02-06T22:54:58.155Z,6.60
2023-02-06T22:57:25.365Z,7.85
2023-02-06T22:59:52.570Z,7.38
2023-02-06T23:02:19.943Z,7.82
2023-02-06T23:04:47.162Z,7.72
2023-02-06T23:07:14.305Z,6.30
2023-02-06T23:09:41.594Z,8.07
2023-02-06T23:12:11.443Z,6.47
2023-02-06T23:14:38.830Z,7.30
2023-02-06T23:17:06.180Z,5.35
2023-02-06T23:19:33.509Z,8.30
2023-02-06T23:22:00.737Z,9.93
2023-02-06T23:24:28.020Z,9.65
2023-02-06T23:26:55.244Z,8.82
2023-02-06T23:29:23.073Z,7.25
2023-02-06T23:31:51.202Z,8.80
2023-02-06T23:34:19.551Z,8.10
2023-02-06T23:36:46.865Z,8.90
2023-02-06T23:39:14.325Z,8.88
2023-02-06T23:41:41.525Z,10.30
2023-02-06T23:44:09.084Z,10.60
2023-02-06T23:46:37.536Z,7.75
2023-02-06T23:49:05.056Z,7.75
2023-02-06T23:51:33.042Z,8.77
2023-02-06T23:54:00.478Z,11.10
2023-02-06T23:56:29.137Z,9.10
2023-02-06T23:58:56.864Z,10.75
